Time;durP1;ratioP1;P1;durP2;ratioP2;P2;SDS_P1;SDS_P2;PMS_P1;PMS_P2;Temp;Humidity;BMP_temperature;BMP_pressure;BME280_temperature;BME280_humidity;BME280_pressure;Samples;Min_cycle;Max_cycle;Signal;HPM_P1;HPM_P2
2021/12/02 00:02:00;;;;;;;6.75;0.85;;;;;;;6.10;71.30;98197.38;5031215;28;20041;-76
2021/12/02 00:04:27;;;;;;;1.27;0.40;;;;;;;6.02;71.68;98187.09;5031315;28;20076;-76
2021/12/02 00:06:52;;;;;;;2.80;0.63;;;;;;;6.00;71.79;98183.66;5027741;28;20064;-77
2021/12/02 00:09:18;;;;;;;4.97;0.60;;;;;;;6.06;71.39;98196.59;5031010;28;20060;-76
2021/12/02 00:11:43;;;;;;;2.95;0.70;;;;;;;6.10;71.08;98185.16;5028615;28;20041;-77
2021/12/02 00:14:13;;;;;;;4.53;0.63;;;;;;;6.10;69.77;98193.00;5031233;28;20041;-77
2021/12/02 00:17:05;;;;;;;3.30;0.65;;;;;;;6.16;69.97;98199.84;5029497;28;20416;-77
2021/12/02 00:22:15;;;;;;;3.60;0.65;;;;;;;6.15;70.25;98204.19;5030245;28;20407;-77
2021/12/02 00:24:46;;;;;;;5.20;0.50;;;;;;;6.20;69.20;98211.09;5031075;28;20037;-77
2021/12/02 00:27:13;;;;;;;5.95;1.02;;;;;;;6.41;66.82;98215.78;5030633;28;20517;-76
2021/12/02 00:29:41;;;;;;;3.30;0.70;;;;;;;6.41;66.75;98222.78;5029775;28;20041;-76
2021/12/02 00:32:08;;;;;;;5.03;0.90;;;;;;;6.43;67.55;98237.56;5026165;28;20064;-77
2021/12/02 00:34:41;;;;;;;2.40;0.45;;;;;;;6.43;67.54;98224.47;5031000;28;20121;-76
2021/12/02 00:37:07;;;;;;;7.90;1.02;;;;;;;6.35;69.11;98226.41;5024667;28;20120;-76
2021/12/02 00:39:33;;;;;;;2.15;0.40;;;;;;;6.27;69.85;98246.72;5022436;28;20037;-77
2021/12/02 00:41:59;;;;;;;2.67;0.60;;;;;;;6.19;70.11;98210.25;5028949;28;20049;-77
2021/12/02 00:44:24;;;;;;;5.13;0.80;;;;;;;6.00;70.54;98225.56;5028739;28;20117;-77
2021/12/02 00:46:50;;;;;;;3.90;0.65;;;;;;;5.93;70.92;98252.75;5030598;28;20045;-76
2021/12/02 00:49:18;;;;;;;3.38;0.63;;;;;;;5.81;71.12;98229.47;5030686;28;20041;-77
2021/12/02 00:51:47;;;;;;;6.13;0.68;;;;;;;5.70;70.99;98227.97;5029708;28;20034;-76
2021/12/02 00:54:13;;;;;;;2.15;0.50;;;;;;;5.62;71.14;98239.50;5021701;28;20038;-77
2021/12/02 00:56:41;;;;;;;2.40;0.60;;;;;;;5.65;70.70;98255.13;5029162;28;20076;-77
2021/12/02 00:59:07;;;;;;;2.17;0.45;;;;;;;5.59;71.21;98261.38;5030525;28;20132;-77
2021/12/02 01:01:35;;;;;;;3.58;0.52;;;;;;;5.64;70.18;98243.81;5025826;28;20105;-77
2021/12/02 01:04:02;;;;;;;1.73;0.57;;;;;;;5.59;70.46;98255.28;5034764;28;20260;-77
2021/12/02 01:06:28;;;;;;;4.18;0.93;;;;;;;5.57;70.56;98250.06;5034523;28;20037;-76
2021/12/02 01:08:54;;;;;;;2.30;0.55;;;;;;;5.56;71.54;98255.38;5033983;28;20033;-77
2021/12/02 01:11:21;;;;;;;3.35;1.08;;;;;;;5.61;70.68;98267.44;5034585;28;20040;-77
2021/12/02 01:13:46;;;;;;;4.53;0.80;;;;;;;5.64;70.79;98267.38;5034539;28;20107;-76
2021/12/02 01:16:12;;;;;;;3.10;0.60;;;;;;;5.65;70.89;98281.31;5034557;28;20037;-77
2021/12/02 01:18:38;;;;;;;2.97;0.70;;;;;;;5.66;71.01;98273.44;5034241;28;20045;-77
2021/12/02 01:21:04;;;;;;;3.88;0.60;;;;;;;5.55;71.80;98295.50;5034541;28;20037;-77
2021/12/02 01:23:32;;;;;;;1.88;0.40;;;;;;;5.50;71.48;98272.03;5034488;28;20041;-76
2021/12/02 01:26:04;;;;;;;5.95;0.75;;;;;;;5.38;71.86;98283.63;5030625;28;20041;-76
2021/12/02 01:28:31;;;;;;;4.65;1.73;;;;;;;5.43;72.21;98294.00;5031325;28;20117;-77
2021/12/02 01:30:56;;;;;;;6.10;0.63;;;;;;;5.35;72.20;98290.69;5034373;28;20033;-77
2021/12/02 01:33:24;;;;;;;2.50;0.52;;;;;;;5.30;72.53;98292.53;5034010;28;20064;-77
2021/12/02 01:35:51;;;;;;;4.68;1.05;;;;;;;5.31;72.04;98291.63;5030490;28;20033;-77
2021/12/02 01:38:17;;;;;;;3.40;0.80;;;;;;;5.40;72.58;98286.22;5030166;28;20029;-77
2021/12/02 01:40:44;;;;;;;4.95;0.65;;;;;;;5.45;71.56;98287.00;5034109;28;20048;-77
2021/12/02 01:43:15;;;;;;;4.72;0.65;;;;;;;5.41;71.28;98283.56;5034031;28;20126;-77
2021/12/02 01:45:41;;;;;;;3.50;0.75;;;;;;;5.45;71.16;98276.53;5030165;28;20074;-77
2021/12/02 01:48:10;;;;;;;5.10;0.55;;;;;;;5.40;71.41;98278.38;5033768;28;20025;-77
2021/12/02 01:50:39;;;;;;;2.60;0.80;;;;;;;5.44;71.51;98277.41;5033429;28;20034;-77
2021/12/02 01:53:05;;;;;;;4.57;1.00;;;;;;;5.50;70.64;98282.50;5030167;28;20037;-77
2021/12/02 01:55:34;;;;;;;4.35;0.85;;;;;;;5.63;70.47;98277.84;5033704;28;20070;-77
2021/12/02 01:58:02;;;;;;;4.60;0.80;;;;;;;5.62;69.81;98274.38;5029521;28;20080;-77
2021/12/02 02:00:41;;;;;;;2.58;0.70;;;;;;;5.71;70.30;98274.19;5029976;28;20037;-77
2021/12/02 02:03:07;;;;;;;5.03;0.88;;;;;;;5.82;69.19;98270.47;5031276;28;20029;-77
2021/12/02 02:05:32;;;;;;;5.95;0.85;;;;;;;5.81;68.82;98268.72;5033571;28;20029;-77
2021/12/02 02:08:02;;;;;;;3.53;0.75;;;;;;;5.79;68.97;98262.66;5033347;28;20071;-76
2021/12/02 02:10:31;;;;;;;3.88;0.60;;;;;;;5.87;68.01;98289.56;5033680;28;20117;-77
2021/12/02 02:12:59;;;;;;;4.80;0.90;;;;;;;5.92;68.17;98269.34;5033517;28;20572;-77
2021/12/02 02:15:26;;;;;;;5.50;0.85;;;;;;;5.93;68.11;98268.47;5033388;28;20041;-77
2021/12/02 02:20:24;;;;;;;6.07;0.90;;;;;;;6.03;68.63;98283.09;5033357;28;20029;-77
2021/12/02 02:22:50;;;;;;;3.42;0.70;;;;;;;5.95;68.41;98305.97;5033478;28;20033;-77
2021/12/02 02:25:18;;;;;;;2.85;0.88;;;;;;;5.92;68.80;98292.91;5033479;28;20541;-77
2021/12/02 02:27:43;;;;;;;4.85;0.60;;;;;;;5.95;68.19;98295.50;5033032;28;20380;-77
2021/12/02 02:30:10;;;;;;;4.90;0.80;;;;;;;5.89;68.78;98288.63;5033296;28;20037;-76
2021/12/02 02:32:36;;;;;;;5.72;1.05;;;;;;;5.89;68.99;98300.81;5033258;28;20041;-76
2021/12/02 02:35:01;;;;;;;5.35;0.82;;;;;;;5.87;68.68;98307.88;5033073;28;20178;-77
2021/12/02 02:37:32;;;;;;;4.15;0.80;;;;;;;5.85;68.69;98320.13;5032819;28;20045;-77
2021/12/02 02:39:57;;;;;;;5.38;0.90;;;;;;;5.82;68.89;98299.28;5029440;28;20065;-77
2021/12/02 02:42:23;;;;;;;3.55;0.70;;;;;;;5.87;68.72;98310.50;5032305;28;20080;-77
2021/12/02 02:44:48;;;;;;;2.53;0.70;;;;;;;5.86;68.83;98311.38;5032748;28;20499;-77
2021/12/02 02:47:14;;;;;;;3.97;1.02;;;;;;;5.84;68.99;98313.16;5031356;28;20033;-76
2021/12/02 02:49:39;;;;;;;5.30;0.50;;;;;;;5.88;69.10;98314.81;5032452;28;20510;-76
2021/12/02 02:52:05;;;;;;;4.78;0.80;;;;;;;5.93;69.38;98323.44;5032602;28;20037;-77
2021/12/02 02:54:30;;;;;;;4.95;1.00;;;;;;;5.87;69.55;98323.59;5029975;28;20034;-76
2021/12/02 02:57:06;;;;;;;4.57;0.90;;;;;;;5.81;69.70;98324.56;5029709;28;20050;-77
2021/12/02 02:59:40;;;;;;;7.13;0.65;;;;;;;5.83;69.44;98332.38;5032481;28;20041;-76
2021/12/02 03:02:26;;;;;;;4.82;0.70;;;;;;;5.71;69.50;98323.91;5032606;28;20041;-77
2021/12/02 03:05:00;;;;;;;5.65;0.73;;;;;;;5.77;69.17;98337.78;5030609;28;20051;-77
2021/12/02 03:07:38;;;;;;;4.53;0.93;;;;;;;5.70;69.56;98337.88;5032325;28;20455;-77
2021/12/02 03:10:12;;;;;;;4.63;0.70;;;;;;;5.67;70.28;98337.97;5028817;28;20041;-77
2021/12/02 03:12:55;;;;;;;3.38;0.90;;;;;;;5.68;70.18;98337.06;5029574;28;20029;-76
2021/12/02 03:17:46;;;;;;;4.47;0.90;;;;;;;5.68;69.72;98331.81;5032071;28;20594;-77
2021/12/02 03:20:12;;;;;;;4.35;0.60;;;;;;;5.64;70.55;98347.63;5014445;28;20063;-76
2021/12/02 03:22:38;;;;;;;2.75;0.60;;;;;;;5.69;70.48;98349.25;5032169;28;20045;-76
2021/12/02 03:25:06;;;;;;;7.68;0.80;;;;;;;5.61;70.18;98353.78;5031452;28;20040;-76
2021/12/02 03:27:32;;;;;;;6.75;1.00;;;;;;;5.46;71.86;98365.44;5031881;28;20411;-76
2021/12/02 03:30:00;;;;;;;6.15;0.70;;;;;;;5.36;72.32;98371.72;5030817;28;20559;-76
2021/12/02 03:32:25;;;;;;;4.32;0.82;;;;;;;5.28;73.54;98384.09;5032012;28;20116;-76
2021/12/02 03:34:51;;;;;;;5.68;1.08;;;;;;;5.19;72.77;98374.69;5031877;28;20103;-77
2021/12/02 03:37:17;;;;;;;5.45;0.75;;;;;;;5.10;73.27;98389.69;5031498;28;20076;-76
2021/12/02 03:39:43;;;;;;;5.15;0.80;;;;;;;5.09;73.41;98388.81;5031729;28;20069;-77
2021/12/02 03:42:08;;;;;;;7.18;1.30;;;;;;;5.09;73.15;98406.28;5031869;28;20515;-77
2021/12/02 03:44:34;;;;;;;3.65;0.80;;;;;;;5.20;72.32;98388.63;5031756;28;20067;-77
2021/12/02 03:50:09;;;;;;;6.35;1.52;;;;;;;5.22;72.12;98392.94;5022686;28;20125;-76
2021/12/02 03:52:35;;;;;;;4.55;1.10;;;;;;;5.11;73.28;98423.66;5024963;28;20128;-77
2021/12/02 03:55:01;;;;;;;4.22;0.80;;;;;;;5.01;73.86;98422.94;5031442;28;20128;-76
2021/12/02 03:57:28;;;;;;;3.90;0.88;;;;;;;4.83;75.00;98421.50;5031170;28;20506;-76
2021/12/02 03:59:54;;;;;;;4.93;0.70;;;;;;;4.74;76.03;98421.69;5031434;28;20035;-76
2021/12/02 04:02:19;;;;;;;3.05;0.60;;;;;;;4.70;76.42;98433.06;5029993;28;20037;-76
2021/12/02 04:04:44;;;;;;;6.38;0.73;;;;;;;4.72;76.16;98428.66;5031173;28;20037;-76
2021/12/02 04:07:10;;;;;;;3.42;0.80;;;;;;;4.80;75.60;98457.28;5031082;28;20072;-76
2021/12/02 04:09:42;;;;;;;7.18;1.27;;;;;;;4.86;75.53;98436.28;5031227;28;20049;-76
2021/12/02 04:12:14;;;;;;;6.85;0.95;;;;;;;4.77;76.50;98439.06;5031213;28;20041;-77
2021/12/02 04:14:55;;;;;;;5.88;0.93;;;;;;;4.74;76.59;98434.75;5027352;28;20110;-77
2021/12/02 04:17:29;;;;;;;5.03;0.98;;;;;;;4.82;76.77;98445.94;5028765;28;20033;-77
2021/12/02 04:19:54;;;;;;;6.40;0.80;;;;;;;4.86;76.00;98451.09;5031125;28;20068;-77
2021/12/02 04:22:19;;;;;;;6.40;1.05;;;;;;;4.91;74.96;98451.88;5031426;28;20468;-76
2021/12/02 04:24:45;;;;;;;3.95;1.15;;;;;;;4.92;75.88;98448.38;5031000;28;20504;-76
2021/12/02 04:27:10;;;;;;;6.22;0.80;;;;;;;4.70;78.25;98480.09;5030751;28;20108;-76
2021/12/02 04:29:35;;;;;;;6.85;0.95;;;;;;;4.47;79.21;98479.56;5030771;28;20120;-76
2021/12/02 04:32:01;;;;;;;10.50;0.98;;;;;;;4.23;81.34;98507.75;5030966;28;20038;-77
2021/12/02 04:34:26;;;;;;;3.90;0.88;;;;;;;3.80;83.09;98476.97;5030925;28;20044;-77
2021/12/02 04:36:51;;;;;;;7.68;1.10;;;;;;;3.59;84.52;98482.41;5030863;28;20026;-77
2021/12/02 04:39:18;;;;;;;6.22;1.40;;;;;;;3.51;84.75;98475.53;5034745;28;20033;-77
2021/12/02 04:41:43;;;;;;;6.53;0.68;;;;;;;3.50;84.62;98478.16;5035060;28;20045;-77
2021/12/02 04:44:08;;;;;;;7.95;0.95;;;;;;;3.56;84.48;98477.22;5034294;28;20057;-77
2021/12/02 04:46:34;;;;;;;8.70;1.10;;;;;;;3.58;85.00;98491.13;5030318;28;20030;-77
2021/12/02 04:48:59;;;;;;;5.78;1.00;;;;;;;3.63;85.41;98491.94;5018437;28;20038;-76
2021/12/02 04:51:25;;;;;;;5.88;0.85;;;;;;;3.71;85.29;98482.28;5030149;28;20450;-76
2021/12/02 04:53:50;;;;;;;6.97;1.65;;;;;;;3.69;86.24;98489.25;5031046;28;20045;-77
2021/12/02 04:56:16;;;;;;;7.30;1.45;;;;;;;3.82;85.16;98490.84;5028942;28;20036;-76
2021/12/02 04:58:41;;;;;;;3.55;0.85;;;;;;;3.89;84.30;98497.72;5033775;28;20025;-77
2021/12/02 05:01:06;;;;;;;7.15;1.27;;;;;;;3.90;83.58;98486.41;5034561;28;20037;-76
2021/12/02 05:06:14;;;;;;;9.00;1.53;;;;;;;3.97;82.05;98512.44;5282548;22;20127;-76
2021/12/02 05:08:39;;;;;;;3.88;0.82;;;;;;;4.03;81.20;98504.50;5025955;28;20495;-74
2021/12/02 05:11:04;;;;;;;7.25;0.77;;;;;;;4.13;80.35;98504.38;5033019;28;20053;-75
2021/12/02 05:13:30;;;;;;;9.45;1.58;;;;;;;4.10;80.73;98507.03;5034629;28;20045;-75
2021/12/02 05:15:55;;;;;;;5.20;0.90;;;;;;;4.17;79.29;98510.44;5034237;28;20026;-74
2021/12/02 05:18:20;;;;;;;4.85;1.30;;;;;;;4.20;80.10;98506.94;5034342;28;20048;-75
2021/12/02 05:20:47;;;;;;;4.43;1.17;;;;;;;4.21;79.98;98504.28;5014181;28;20042;-75
2021/12/02 05:23:12;;;;;;;4.75;1.30;;;;;;;4.23;79.92;98502.53;5036156;28;20041;-75
2021/12/02 05:25:38;;;;;;;3.80;0.95;;;;;;;4.22;79.97;98508.63;5033933;28;20048;-75
2021/12/02 05:28:04;;;;;;;5.45;1.00;;;;;;;4.25;79.16;98502.50;5023822;28;20191;-76
2021/12/02 05:30:29;;;;;;;6.07;1.05;;;;;;;4.21;78.36;98517.34;5042379;28;20041;-76
2021/12/02 05:32:54;;;;;;;7.97;1.50;;;;;;;4.16;78.63;98516.53;5032146;28;20069;-75
2021/12/02 05:35:19;;;;;;;8.68;1.20;;;;;;;4.19;78.57;98521.69;5017722;28;20053;-74
2021/12/02 05:37:46;;;;;;;8.15;1.25;;;;;;;4.20;78.29;98506.94;5026641;28;20037;-75
2021/12/02 05:40:12;;;;;;;4.03;1.38;;;;;;;4.20;77.47;98513.00;5011188;28;20426;-75
2021/12/02 05:42:37;;;;;;;4.95;0.98;;;;;;;4.11;77.40;98507.88;5012308;28;20036;-75
2021/12/02 05:45:04;;;;;;;2.78;0.63;;;;;;;4.10;77.23;98508.78;5029933;28;20116;-75
2021/12/02 05:47:29;;;;;;;8.30;1.05;;;;;;;4.13;76.56;98517.44;5023234;28;20063;-76
2021/12/02 05:49:54;;;;;;;5.38;1.20;;;;;;;4.15;76.54;98514.81;5004803;28;20045;-76
2021/12/02 05:52:20;;;;;;;3.90;0.88;;;;;;;4.09;76.48;98513.16;5011659;28;20031;-78
2021/12/02 05:54:45;;;;;;;7.22;1.63;;;;;;;4.17;77.08;98526.09;5021183;28;20069;-77
2021/12/02 05:57:10;;;;;;;5.55;1.00;;;;;;;4.22;76.39;98526.91;5029366;28;20112;-76
2021/12/02 05:59:36;;;;;;;3.60;0.75;;;;;;;4.25;75.58;98526.00;5028896;28;20045;-77
2021/12/02 06:02:01;;;;;;;3.95;0.63;;;;;;;4.13;76.41;98533.09;5026191;28;20065;-77
2021/12/02 06:04:26;;;;;;;4.97;0.80;;;;;;;4.04;77.44;98522.78;5025815;28;20057;-77
2021/12/02 06:06:52;;;;;;;12.20;6.47;;;;;;;4.04;77.38;98528.00;5029177;28;20046;-77
2021/12/02 06:09:19;;;;;;;4.32;0.90;;;;;;;4.11;77.26;98534.00;5013119;28;20049;-77
2021/12/02 06:11:45;;;;;;;5.97;1.10;;;;;;;4.10;77.54;98543.59;5010680;28;20128;-77
2021/12/02 06:14:13;;;;;;;5.28;1.10;;;;;;;4.15;76.69;98546.16;5032895;28;20037;-77
2021/12/02 06:16:38;;;;;;;4.97;0.82;;;;;;;4.10;76.08;98558.38;5028130;28;20025;-77
2021/12/02 06:19:03;;;;;;;4.32;0.88;;;;;;;4.08;73.99;98567.97;5026592;28;20682;-77
2021/12/02 06:21:29;;;;;;;5.47;0.93;;;;;;;3.96;74.57;98563.78;5029932;28;20483;-77
2021/12/02 06:23:57;;;;;;;3.33;0.80;;;;;;;3.88;74.70;98574.28;5008119;28;20041;-77
2021/12/02 06:26:22;;;;;;;9.07;1.10;;;;;;;3.72;74.67;98583.13;5026262;28;20030;-77
2021/12/02 06:28:47;;;;;;;8.80;2.58;;;;;;;3.74;73.88;98584.00;5009625;28;20602;-77
2021/12/02 06:31:13;;;;;;;7.07;1.10;;;;;;;3.66;73.37;98585.81;5030622;28;20390;-77
2021/12/02 06:33:38;;;;;;;5.50;0.90;;;;;;;3.66;71.80;98596.25;5009467;28;20447;-77
2021/12/02 06:36:04;;;;;;;7.45;0.90;;;;;;;3.68;71.48;98599.72;5031685;28;20491;-77
2021/12/02 06:38:29;;;;;;;3.50;0.77;;;;;;;3.65;70.95;98612.78;5031985;28;20040;-77
2021/12/02 06:40:55;;;;;;;5.75;1.55;;;;;;;3.63;71.04;98609.31;5027210;28;20040;-77
2021/12/02 06:43:20;;;;;;;9.13;1.40;;;;;;;3.51;71.58;98605.94;5007429;28;20036;-77
2021/12/02 06:45:46;;;;;;;4.13;1.02;;;;;;;3.43;71.51;98607.75;5028796;28;20030;-77
2021/12/02 06:48:12;;;;;;;9.00;1.10;;;;;;;3.45;71.52;98615.56;5014085;28;20045;-77
2021/12/02 06:50:37;;;;;;;4.85;1.27;;;;;;;3.37;72.08;98622.56;5023834;28;20029;-77
2021/12/02 06:53:05;;;;;;;7.95;1.77;;;;;;;3.24;72.55;98616.59;5028593;28;20537;-77
2021/12/02 06:55:31;;;;;;;8.95;1.13;;;;;;;3.25;72.57;98628.78;5022636;28;20056;-77
2021/12/02 06:57:56;;;;;;;5.90;1.10;;;;;;;3.28;72.67;98631.34;5026554;28;20045;-77
2021/12/02 07:00:23;;;;;;;7.70;1.10;;;;;;;3.30;72.43;98642.59;5029064;28;20108;-76
2021/12/02 07:02:49;;;;;;;3.67;1.10;;;;;;;3.42;72.14;98647.75;5030994;28;20037;-77
2021/12/02 07:05:16;;;;;;;8.88;0.85;;;;;;;3.53;72.00;98650.25;5009279;28;20041;-77
2021/12/02 07:07:42;;;;;;;5.95;1.45;;;;;;;3.60;72.40;98651.09;5031653;28;20056;-77
2021/12/02 07:10:20;;;;;;;4.70;1.17;;;;;;;3.66;71.88;98661.47;5013922;28;20622;-77
2021/12/02 07:12:49;;;;;;;13.32;2.63;;;;;;;3.75;72.69;98664.00;5026583;28;20048;-77
2021/12/02 07:15:17;;;;;;;9.18;2.08;;;;;;;3.82;73.36;98665.66;5026028;28;20045;-77
2021/12/02 07:17:50;;;;;;;5.00;1.45;;;;;;;3.89;73.65;98667.34;5026271;28;20108;-77
2021/12/02 07:20:16;;;;;;;5.65;1.70;;;;;;;3.88;74.45;98670.84;5008112;28;20045;-77
2021/12/02 07:22:41;;;;;;;6.28;1.30;;;;;;;3.96;74.66;98678.63;5010919;28;20029;-77
2021/12/02 07:25:08;;;;;;;5.50;1.27;;;;;;;4.03;74.95;98676.78;5028533;28;20100;-78
2021/12/02 07:27:33;;;;;;;5.03;0.88;;;;;;;4.05;74.71;98681.13;5031245;28;20037;-77
2021/12/02 07:29:59;;;;;;;3.03;1.15;;;;;;;4.09;75.01;98682.84;5030655;28;20091;-77
2021/12/02 07:32:31;;;;;;;9.18;1.15;;;;;;;4.10;75.53;98683.69;5031418;28;20705;-77
2021/12/02 07:35:00;;;;;;;6.45;0.93;;;;;;;4.20;75.29;98693.16;5013013;28;20052;-77
2021/12/02 07:37:26;;;;;;;9.63;1.33;;;;;;;4.23;74.66;98690.53;5027606;28;20029;-78
2021/12/02 07:39:52;;;;;;;5.75;1.27;;;;;;;4.29;75.27;98702.66;5026690;28;20102;-76
2021/12/02 07:42:18;;;;;;;6.95;1.20;;;;;;;4.30;73.76;98710.47;5006889;28;20041;-76
2021/12/02 07:44:43;;;;;;;4.32;0.93;;;;;;;4.21;73.43;98707.09;5027556;28;20044;-76
2021/12/02 07:47:08;;;;;;;6.95;1.40;;;;;;;4.21;72.63;98705.34;5026174;28;20039;-76
2021/12/02 07:49:36;;;;;;;2.60;0.77;;;;;;;4.25;71.65;98708.81;5034231;28;20056;-78
2021/12/02 07:52:02;;;;;;;8.13;1.17;;;;;;;4.28;71.61;98707.00;5024451;28;20520;-78
2021/12/02 07:54:31;;;;;;;5.88;1.25;;;;;;;4.28;71.16;98717.47;5043611;28;20093;-78
2021/12/02 07:56:57;;;;;;;6.78;1.30;;;;;;;4.33;71.19;98717.41;5043756;28;20045;-78
2021/12/02 07:59:23;;;;;;;7.30;0.93;;;;;;;4.32;69.83;98719.19;5045461;28;20439;-77
2021/12/02 08:01:49;;;;;;;4.72;0.88;;;;;;;4.29;66.93;98739.22;5043062;28;20042;-78
2021/12/02 08:04:15;;;;;;;6.43;1.10;;;;;;;4.44;66.49;98719.91;5036829;28;20105;-76
2021/12/02 08:06:40;;;;;;;8.13;1.55;;;;;;;4.39;65.10;98733.88;5025103;28;20470;-77
2021/12/02 08:09:06;;;;;;;6.05;0.98;;;;;;;4.50;65.58;98746.81;5041599;28;20037;-78
2021/12/02 08:11:32;;;;;;;8.32;1.10;;;;;;;4.48;64.45;98739.88;5038882;28;20033;-78
2021/12/02 08:13:58;;;;;;;3.58;1.25;;;;;;;4.56;64.90;98751.16;5026369;28;20043;-78
2021/12/02 08:16:23;;;;;;;8.63;1.10;;;;;;;4.57;64.13;98758.97;5041409;28;20045;-77
2021/12/02 08:18:49;;;;;;;9.00;1.90;;;;;;;4.64;63.64;98757.16;5045527;28;20040;-77
2021/12/02 08:21:14;;;;;;;7.43;0.93;;;;;;;4.56;63.27;98772.91;5039997;28;20033;-78
2021/12/02 08:23:39;;;;;;;8.55;1.38;;;;;;;4.37;64.00;98759.13;5034864;28;20187;-78
2021/12/02 08:26:05;;;;;;;5.97;1.20;;;;;;;4.31;64.32;98776.63;5035189;28;20037;-78
2021/12/02 08:28:30;;;;;;;6.50;1.08;;;;;;;4.29;64.53;98784.47;5035510;28;20032;-78
2021/12/02 08:30:57;;;;;;;5.00;1.17;;;;;;;4.25;65.12;98777.56;5034204;28;20056;-78
2021/12/02 08:33:23;;;;;;;8.15;1.60;;;;;;;4.26;65.90;98779.28;5038188;28;20057;-78
2021/12/02 08:35:48;;;;;;;7.93;2.00;;;;;;;4.21;65.82;98780.19;5039362;28;20037;-78
2021/12/02 08:38:16;;;;;;;8.32;1.58;;;;;;;4.22;65.51;98782.81;5039480;28;20067;-77
2021/12/02 08:40:43;;;;;;;7.55;1.92;;;;;;;4.37;64.76;98787.00;5022613;28;20033;-78
2021/12/02 08:43:13;;;;;;;7.13;1.20;;;;;;;4.51;63.80;98799.97;5044917;28;20037;-79
2021/12/02 08:45:40;;;;;;;6.10;1.10;;;;;;;4.54;64.16;98798.19;5043705;28;20037;-78
2021/12/02 08:48:07;;;;;;;6.80;1.20;;;;;;;4.59;63.32;98811.22;5045690;28;20532;-78
2021/12/02 08:50:34;;;;;;;5.82;1.00;;;;;;;4.64;62.46;98808.53;5022943;28;20040;-78
2021/12/02 08:53:01;;;;;;;6.45;1.10;;;;;;;4.62;62.28;98832.06;5027723;28;20048;-78
2021/12/02 08:55:29;;;;;;;8.90;1.25;;;;;;;4.59;62.35;98813.81;5026347;28;20040;-78
2021/12/02 08:57:55;;;;;;;7.90;0.95;;;;;;;4.54;62.96;98821.69;5027307;28;20041;-79
2021/12/02 09:00:25;;;;;;;11.30;1.52;;;;;;;4.42;62.90;98811.34;5023403;28;20057;-79
2021/12/02 09:02:53;;;;;;;6.45;1.45;;;;;;;4.35;63.00;98821.00;5004550;28;20041;-78
2021/12/02 09:05:19;;;;;;;10.70;1.67;;;;;;;4.28;63.12;98819.31;5032203;28;20033;-78
2021/12/02 09:07:44;;;;;;;6.93;1.58;;;;;;;4.34;62.82;98823.59;5021387;28;20038;-79
2021/12/02 09:10:10;;;;;;;7.38;1.23;;;;;;;4.36;63.43;98832.31;5024720;28;20037;-77
2021/12/02 09:12:35;;;;;;;9.38;1.30;;;;;;;4.36;63.48;98827.09;5026951;28;20064;-79
2021/12/02 09:15:02;;;;;;;7.78;1.02;;;;;;;4.41;62.62;98840.13;5041510;28;20097;-77
2021/12/02 09:17:28;;;;;;;4.82;1.40;;;;;;;4.43;63.47;98846.16;5023952;28;20056;-78
2021/12/02 09:19:53;;;;;;;9.98;1.40;;;;;;;4.45;62.57;98839.19;5022346;28;20033;-78
2021/12/02 09:22:18;;;;;;;8.05;1.77;;;;;;;4.45;63.00;98854.88;5026692;28;20461;-79
2021/12/02 09:24:44;;;;;;;7.45;1.00;;;;;;;4.42;63.17;98834.00;5025497;28;20038;-78
2021/12/02 09:27:10;;;;;;;7.93;1.33;;;;;;;4.47;63.01;98830.47;5038751;28;20033;-78
2021/12/02 09:29:36;;;;;;;9.02;1.33;;;;;;;4.51;62.68;98850.47;5023740;28;20410;-78
2021/12/02 09:32:03;;;;;;;5.68;1.50;;;;;;;4.57;61.74;98839.94;5036008;28;20103;-79
2021/12/02 09:34:28;;;;;;;7.88;1.50;;;;;;;4.54;61.50;98839.97;5021244;28;20033;-78
2021/12/02 09:36:54;;;;;;;4.63;1.17;;;;;;;4.56;61.80;98845.22;5036204;28;20029;-79
2021/12/02 09:39:19;;;;;;;6.00;1.25;;;;;;;4.59;61.08;98846.03;5023564;28;20037;-78
2021/12/02 09:41:46;;;;;;;2.95;1.00;;;;;;;4.58;60.55;98856.50;5047246;28;20039;-78
2021/12/02 09:44:12;;;;;;;6.68;1.20;;;;;;;4.62;60.61;98860.81;5021879;28;20065;-79
2021/12/02 09:46:40;;;;;;;5.53;1.40;;;;;;;4.68;60.01;98858.13;5039497;28;20044;-78
2021/12/02 09:49:08;;;;;;;4.75;1.08;;;;;;;4.59;58.56;98871.31;5041810;28;20089;-79
2021/12/02 09:51:44;;;;;;;10.25;1.10;;;;;;;4.67;58.90;98872.09;5044675;28;20033;-78
2021/12/02 09:54:18;;;;;;;4.93;1.20;;;;;;;4.67;59.83;98859.03;5042483;28;20045;-79
2021/12/02 09:56:47;;;;;;;8.18;1.30;;;;;;;4.66;59.80;98867.72;5022236;28;20036;-79
2021/12/02 09:59:24;;;;;;;4.45;1.40;;;;;;;4.56;60.90;98863.50;5044666;28;20080;-77
2021/12/02 10:02:04;;;;;;;6.80;1.40;;;;;;;4.54;61.44;98858.28;5029475;28;20052;-79
2021/12/02 10:04:30;;;;;;;6.30;1.30;;;;;;;4.49;61.59;98857.44;5029003;28;20431;-78
2021/12/02 10:07:12;;;;;;;4.88;1.27;;;;;;;4.54;61.55;98858.28;5023189;28;20033;-78
2021/12/02 10:09:41;;;;;;;8.70;1.40;;;;;;;4.52;62.29;98853.94;5038080;28;20040;-78
2021/12/02 10:12:15;;;;;;;7.20;1.40;;;;;;;4.55;61.42;98856.53;5045937;28;20056;-78
2021/12/02 10:14:48;;;;;;;6.30;0.95;;;;;;;4.63;61.70;98846.00;5043435;28;20049;-78
2021/12/02 10:23:17;;;;;;;5.38;1.13;;;;;;;4.67;61.02;98866.88;4945599;29;20047;-78
2021/12/02 10:25:49;;;;;;;6.78;1.10;;;;;;;4.68;60.63;98852.91;5025617;28;20136;-78
2021/12/02 10:28:18;;;;;;;8.82;1.58;;;;;;;4.77;62.09;98849.38;5045401;28;20041;-77
2021/12/02 10:30:47;;;;;;;5.88;1.10;;;;;;;4.81;61.53;98848.44;5024677;28;20037;-77
2021/12/02 10:33:13;;;;;;;6.13;1.40;;;;;;;4.79;59.77;98858.03;5045944;28;20029;-78
2021/12/02 10:35:49;;;;;;;7.13;1.20;;;;;;;4.79;60.67;98863.25;5038608;28;20045;-78
2021/12/02 10:38:41;;;;;;;5.53;1.40;;;;;;;4.82;60.09;98853.66;5022451;28;20121;-78
2021/12/02 10:41:11;;;;;;;9.57;2.65;;;;;;;4.76;60.42;98864.16;5041099;28;20091;-78
2021/12/02 10:44:06;;;;;;;6.05;1.80;;;;;;;4.86;58.56;98870.19;5044184;28;20056;-78
2021/12/02 10:46:32;;;;;;;5.88;0.93;;;;;;;4.88;58.90;98867.56;5023980;28;20041;-77
2021/12/02 10:48:58;;;;;;;5.85;1.55;;;;;;;4.92;59.88;98871.84;5024929;28;20491;-78
2021/12/02 10:51:46;;;;;;;5.53;1.27;;;;;;;4.97;58.85;98877.91;5044594;28;20025;-77
2021/12/02 10:54:18;;;;;;;7.80;1.30;;;;;;;4.98;58.12;98869.19;5028199;28;20037;-78
2021/12/02 10:56:50;;;;;;;8.98;1.85;;;;;;;4.94;58.92;98862.25;5034789;28;20034;-77
2021/12/02 10:59:50;;;;;;;7.37;1.40;;;;;;;4.99;59.13;98863.09;5017544;28;20033;-76
2021/12/02 11:02:28;;;;;;;4.35;1.10;;;;;;;4.94;59.13;98862.25;5038325;28;20288;-80
2021/12/02 11:05:05;;;;;;;10.35;1.17;;;;;;;4.80;58.90;98865.00;5020819;28;20045;-80
2021/12/02 11:07:39;;;;;;;5.25;1.27;;;;;;;4.82;58.99;98858.91;5015298;28;20082;-80
2021/12/02 11:10:09;;;;;;;10.63;1.95;;;;;;;4.90;58.76;98878.84;5035169;28;20044;-80
2021/12/02 11:12:37;;;;;;;7.22;1.27;;;;;;;4.92;57.62;98858.78;5039571;28;20037;-80
2021/12/02 11:15:09;;;;;;;7.85;1.48;;;;;;;4.94;57.74;98880.56;5039653;28;20037;-80
2021/12/02 11:18:03;;;;;;;6.05;1.40;;;;;;;4.87;55.89;98866.66;5022986;28;20108;-80
2021/12/02 11:20:34;;;;;;;6.00;1.45;;;;;;;4.87;57.03;98876.25;5029134;28;20041;-79
2021/12/02 11:23:15;;;;;;;5.03;1.20;;;;;;;4.96;57.55;98871.81;5040197;28;20080;-80
2021/12/02 11:25:57;;;;;;;5.43;1.20;;;;;;;4.98;55.92;98866.59;5019736;28;20037;-79
2021/12/02 11:28:29;;;;;;;6.93;0.95;;;;;;;5.06;55.79;98864.75;5022800;28;20044;-79
2021/12/02 11:30:57;;;;;;;4.15;1.00;;;;;;;5.17;55.88;98868.13;5021868;28;20037;-79
2021/12/02 11:33:30;;;;;;;6.65;1.63;;;;;;;5.29;54.88;98885.41;5042702;28;20045;-79
2021/12/02 11:35:56;;;;;;;5.68;1.25;;;;;;;5.37;55.72;98874.84;5016682;28;20030;-79
2021/12/02 11:38:25;;;;;;;6.85;1.38;;;;;;;5.41;55.22;98860.88;5038286;28;20033;-79
2021/12/02 11:40:56;;;;;;;6.97;1.10;;;;;;;5.51;54.91;98857.25;5039820;28;20446;-79
2021/12/02 11:43:25;;;;;;;8.07;0.95;;;;;;;5.53;54.25;98873.81;5034253;28;20044;-80
2021/12/02 11:45:52;;;;;;;8.95;1.38;;;;;;;5.47;54.49;98869.50;5031118;28;20434;-80
2021/12/02 11:48:26;;;;;;;5.07;1.00;;;;;;;5.54;54.24;98875.53;5026406;28;20123;-81
2021/12/02 11:50:54;;;;;;;4.97;0.82;;;;;;;5.62;54.58;98878.91;5034880;28;20038;-81
2021/12/02 11:53:22;;;;;;;4.13;1.30;;;;;;;5.60;53.08;98878.06;5015566;28;20054;-81
2021/12/02 11:55:57;;;;;;;5.30;0.82;;;;;;;5.55;52.76;98879.88;5016376;28;20037;-81
2021/12/02 11:58:24;;;;;;;7.63;1.20;;;;;;;5.44;53.84;98873.91;5029550;28;20045;-80
2021/12/02 12:00:49;;;;;;;3.33;0.90;;;;;;;5.45;53.92;98886.13;5013935;28;20177;-80
2021/12/02 12:03:22;;;;;;;4.47;0.80;;;;;;;5.52;54.14;98887.75;5019912;28;20034;-80
2021/12/02 12:06:01;;;;;;;6.70;0.82;;;;;;;5.49;53.22;98885.19;5016768;28;20120;-80